Time;durP1;ratioP1;P1;durP2;ratioP2;P2;SDS_P1;SDS_P2;PMS_P1;PMS_P2;Temp;Humidity;BMP_temperature;BMP_pressure;BME280_temperature;BME280_humidity;BME280_pressure;Samples;Min_cycle;Max_cycle;Signal;HPM_P1;HPM_P2
2022/07/16 00:01:22;;;;;;;2.53;1.23;;;17.80;99.90;;;;;;5156617;27;20398;-80
2022/07/16 00:01:48;;;;;;;3.28;1.70;;;17.80;99.90;;;;;;5156528;27;20043;-80
2022/07/16 00:04:14;;;;;;;3.60;1.40;;;18.00;99.90;;;;;;5138161;27;20066;-80
2022/07/16 00:06:43;;;;;;;2.63;1.40;;;17.50;99.90;;;;;;5156432;27;20090;-80
2022/07/16 00:09:10;;;;;;;3.28;1.80;;;17.00;99.90;;;;;;5156417;27;20049;-80
2022/07/16 00:11:35;;;;;;;2.75;1.70;;;17.10;99.90;;;;;;5156406;27;20059;-80
2022/07/16 00:14:01;;;;;;;2.33;1.50;;;18.30;99.90;;;;;;5156232;27;20610;-80
2022/07/16 00:16:26;;;;;;;4.93;1.70;;;17.30;99.90;;;;;;5156249;27;20126;-80
2022/07/16 00:21:36;;;;;;;3.42;1.70;;;17.50;99.90;;;;;;5156234;27;20405;-80
2022/07/16 00:24:02;;;;;;;3.30;1.90;;;17.10;99.90;;;;;;5137678;27;20165;-80
2022/07/16 00:26:27;;;;;;;4.00;1.50;;;17.30;99.90;;;;;;5137858;27;20089;-80
2022/07/16 00:28:53;;;;;;;3.60;1.57;;;17.00;99.90;;;;;;5156111;27;20045;-80
2022/07/16 00:31:18;;;;;;;3.27;1.47;;;17.70;99.90;;;;;;5138326;27;20046;-80
2022/07/16 00:33:44;;;;;;;5.67;1.40;;;16.90;99.90;;;;;;5155923;27;20466;-80
2022/07/16 00:36:09;;;;;;;3.47;1.80;;;17.20;99.90;;;;;;5155891;27;20486;-80
2022/07/16 00:38:35;;;;;;;3.73;1.37;;;17.20;99.90;;;;;;5155621;27;20061;-80
2022/07/16 00:41:01;;;;;;;3.47;1.80;;;16.90;99.90;;;;;;5137699;27;20043;-80
2022/07/16 00:43:27;;;;;;;3.47;1.40;;;16.90;99.90;;;;;;5137658;27;20458;-80
2022/07/16 00:45:53;;;;;;;2.47;1.27;;;17.10;99.90;;;;;;5137334;27;20039;-80
2022/07/16 00:48:19;;;;;;;3.37;1.50;;;17.80;99.90;;;;;;5156149;27;20248;-80
2022/07/16 00:50:44;;;;;;;4.63;1.73;;;17.10;99.90;;;;;;5137356;27;20082;-80
2022/07/16 00:53:11;;;;;;;2.30;1.43;;;16.70;99.90;;;;;;5155445;27;20450;-80
2022/07/16 00:55:38;;;;;;;3.30;1.60;;;17.10;99.90;;;;;;5155592;27;20126;-80
2022/07/16 00:58:03;;;;;;;;;;;16.80;99.90;;;;;;5156014;27;20068;-80
2022/07/16 01:00:29;;;;;;;4.55;1.55;;;16.70;99.90;;;;;;5155222;27;19919;-80
2022/07/16 01:02:58;;;;;;;3.27;1.67;;;17.40;99.90;;;;;;5137518;27;20039;-80
2022/07/16 01:05:23;;;;;;;2.63;1.70;;;17.80;99.90;;;;;;5137216;27;20049;-80
2022/07/16 01:07:49;;;;;;;3.33;1.70;;;17.00;99.90;;;;;;5155544;27;20393;-80
2022/07/16 01:10:18;;;;;;;5.83;2.10;;;17.30;99.90;;;;;;5136922;27;20143;-79
2022/07/16 01:12:45;;;;;;;3.95;2.10;;;16.70;99.90;;;;;;5155341;27;20296;-79
2022/07/16 01:15:11;;;;;;;3.05;1.90;;;17.40;99.90;;;;;;5155116;27;20545;-79
2022/07/16 01:17:37;;;;;;;3.63;1.67;;;17.70;99.90;;;;;;5136885;27;20098;-80
2022/07/16 01:20:04;;;;;;;3.43;2.03;;;16.60;99.90;;;;;;5155221;27;20046;-80
2022/07/16 01:22:29;;;;;;;4.30;2.15;;;17.00;99.90;;;;;;5155606;27;20386;-80
2022/07/16 01:24:55;;;;;;;4.13;1.90;;;16.90;99.90;;;;;;5136943;27;20051;-80
2022/07/16 01:27:21;;;;;;;3.97;2.03;;;17.10;99.90;;;;;;5155264;27;20395;-80
2022/07/16 01:29:47;;;;;;;4.47;1.83;;;17.60;99.90;;;;;;5154952;27;20043;-80
2022/07/16 01:32:12;;;;;;;4.47;1.93;;;16.90;99.90;;;;;;5155161;27;20220;-80
2022/07/16 01:34:38;;;;;;;4.60;2.30;;;16.90;99.90;;;;;;5155207;27;20276;-80
2022/07/16 01:37:06;;;;;;;5.33;1.87;;;16.20;99.90;;;;;;5137107;27;20593;-79
2022/07/16 01:39:35;;;;;;;3.38;2.30;;;16.50;99.90;;;;;;5155379;27;20039;-79
2022/07/16 01:42:04;;;;;;;3.58;1.98;;;16.50;99.90;;;;;;5155165;27;20081;-79
2022/07/16 01:44:32;;;;;;;3.25;1.95;;;16.90;99.90;;;;;;5155014;27;20080;-79
2022/07/16 01:46:58;;;;;;;3.58;2.00;;;16.70;99.90;;;;;;5155045;27;20038;-78
2022/07/16 01:49:29;;;;;;;3.35;2.05;;;16.50;99.90;;;;;;5137354;27;20046;-78
2022/07/16 01:51:55;;;;;;;3.08;1.90;;;16.80;99.90;;;;;;5154987;27;20386;-78
2022/07/16 01:54:20;;;;;;;4.33;2.07;;;16.50;99.90;;;;;;5154956;27;20035;-79
2022/07/16 01:56:46;;;;;;;3.83;2.00;;;16.40;99.90;;;;;;5136542;27;20039;-79
2022/07/16 01:59:11;;;;;;;3.17;2.07;;;16.60;99.90;;;;;;5154907;27;20367;-79
2022/07/16 02:01:37;;;;;;;3.70;2.30;;;16.80;99.90;;;;;;5119749;27;20034;-79
2022/07/16 02:04:03;;;;;;;4.83;1.90;;;16.80;99.90;;;;;;5156925;27;20550;-79
2022/07/16 02:06:28;;;;;;;3.20;1.83;;;16.70;99.90;;;;;;5158730;27;20074;-79
2022/07/16 02:08:54;;;;;;;3.30;2.00;;;16.70;99.90;;;;;;5158967;27;20054;-79
2022/07/16 02:11:20;;;;;;;6.90;2.33;;;16.50;99.90;;;;;;5158890;27;20134;-79
2022/07/16 02:13:46;;;;;;;4.73;2.50;;;16.30;99.90;;;;;;5158396;27;20056;-79
2022/07/16 02:16:11;;;;;;;5.00;2.40;;;16.20;99.90;;;;;;5158659;27;20482;-79
2022/07/16 02:18:37;;;;;;;3.73;2.30;;;16.70;99.90;;;;;;5158307;27;20039;-80
2022/07/16 02:21:04;;;;;;;5.60;2.60;;;16.90;99.90;;;;;;5140734;27;20129;-79
2022/07/16 02:23:29;;;;;;;4.95;2.55;;;16.50;99.90;;;;;;5158555;27;20378;-79
2022/07/16 02:25:55;;;;;;;4.80;3.00;;;16.30;99.90;;;;;;5158490;27;20034;-79
2022/07/16 02:28:22;;;;;;;4.23;2.80;;;16.40;99.90;;;;;;5158065;27;20125;-78
2022/07/16 02:30:49;;;;;;;4.32;3.08;;;16.40;99.90;;;;;;5158854;27;20597;-78
2022/07/16 02:33:20;;;;;;;5.70;2.65;;;16.50;99.90;;;;;;5158789;27;20089;-79
2022/07/16 02:35:46;;;;;;;3.38;2.70;;;16.30;99.90;;;;;;5158239;27;20176;-79
2022/07/16 02:38:13;;;;;;;5.30;2.78;;;16.10;99.90;;;;;;5158287;27;20050;-78
2022/07/16 02:40:41;;;;;;;4.90;3.15;;;16.80;99.90;;;;;;5158219;27;20034;-78
2022/07/16 02:43:09;;;;;;;3.45;2.63;;;16.30;99.90;;;;;;5139813;27;20359;-79
2022/07/16 02:45:37;;;;;;;5.88;2.92;;;16.60;99.90;;;;;;5158104;27;20046;-79
2022/07/16 02:48:03;;;;;;;4.57;2.70;;;16.00;99.90;;;;;;5158336;27;20072;-80
2022/07/16 02:50:29;;;;;;;5.57;3.45;;;16.30;99.90;;;;;;5158468;27;20436;-79
2022/07/16 02:52:55;;;;;;;4.03;3.03;;;16.30;99.90;;;;;;5157913;27;20035;-79
2022/07/16 02:55:21;;;;;;;4.70;3.40;;;16.30;99.90;;;;;;5157675;27;20049;-79
2022/07/16 02:57:47;;;;;;;6.53;3.50;;;16.30;99.90;;;;;;5157845;27;20117;-79
2022/07/16 03:00:15;;;;;;;5.95;3.15;;;16.30;99.90;;;;;;5139724;27;20050;-79
2022/07/16 03:02:41;;;;;;;6.05;3.33;;;16.30;99.90;;;;;;5157713;27;20035;-79
2022/07/16 03:05:08;;;;;;;8.20;3.33;;;16.20;99.90;;;;;;5157551;27;20175;-79
2022/07/16 03:07:34;;;;;;;5.05;3.15;;;16.20;99.90;;;;;;5157608;27;20043;-80
2022/07/16 03:09:59;;;;;;;4.83;2.80;;;16.20;99.90;;;;;;5157593;27;20043;-80
2022/07/16 03:12:25;;;;;;;6.78;3.10;;;15.70;99.90;;;;;;5158104;27;20050;-80
2022/07/16 03:14:51;;;;;;;5.50;3.10;;;16.10;99.90;;;;;;5156914;27;20050;-79
2022/07/16 03:17:16;;;;;;;3.83;2.80;;;15.90;99.90;;;;;;5157479;27;20280;-80
2022/07/16 03:19:42;;;;;;;3.87;2.50;;;16.20;99.90;;;;;;5157474;27;20050;-80
2022/07/16 03:22:08;;;;;;;3.60;2.40;;;15.80;99.90;;;;;;5157335;27;20035;-80
2022/07/16 03:24:34;;;;;;;6.23;3.33;;;15.90;99.90;;;;;;5157329;27;20058;-80
2022/07/16 03:26:59;;;;;;;5.77;3.00;;;16.10;99.90;;;;;;5156909;27;20047;-80
2022/07/16 03:29:25;;;;;;;6.37;3.20;;;16.10;99.90;;;;;;5138735;27;20038;-80
2022/07/16 03:31:51;;;;;;;7.05;3.92;;;16.00;99.90;;;;;;5157511;27;20041;-80
2022/07/16 03:34:16;;;;;;;5.50;3.80;;;16.10;99.90;;;;;;5139306;27;20494;-80
2022/07/16 03:36:42;;;;;;;5.03;3.33;;;16.50;99.90;;;;;;5157110;27;20060;-80
2022/07/16 03:39:08;;;;;;;5.80;3.40;;;16.00;99.90;;;;;;5157139;27;20043;-80
2022/07/16 03:41:35;;;;;;;6.07;3.73;;;15.50;99.90;;;;;;5138144;27;20038;-80
2022/07/16 03:44:02;;;;;;;6.28;3.35;;;15.90;99.90;;;;;;5156932;27;20054;-80
2022/07/16 03:46:29;;;;;;;7.03;3.38;;;15.70;99.90;;;;;;5156713;27;20600;-80
2022/07/16 03:48:55;;;;;;;5.32;3.40;;;15.80;99.90;;;;;;5156862;27;20041;-79
2022/07/16 03:51:20;;;;;;;5.77;3.03;;;15.80;99.90;;;;;;5156997;27;20070;-79
2022/07/16 03:53:46;;;;;;;6.47;3.47;;;15.80;99.90;;;;;;5156701;27;20147;-79
2022/07/16 03:56:12;;;;;;;8.50;3.53;;;16.20;99.90;;;;;;5156593;27;20045;-78
2022/07/16 03:58:38;;;;;;;5.00;3.30;;;16.70;99.90;;;;;;5156671;27;20038;-78
2022/07/16 04:01:03;;;;;;;5.27;3.20;;;15.80;99.90;;;;;;5138750;27;20061;-79
2022/07/16 04:03:29;;;;;;;6.67;3.43;;;15.80;99.90;;;;;;5156589;27;20050;-79
2022/07/16 04:05:54;;;;;;;5.93;3.27;;;15.80;99.90;;;;;;5157035;27;20126;-79
2022/07/16 04:08:20;;;;;;;6.53;3.00;;;16.50;99.90;;;;;;5156480;27;20039;-78
2022/07/16 04:10:46;;;;;;;5.60;3.10;;;16.50;99.90;;;;;;5156093;27;20107;-78
2022/07/16 04:13:11;;;;;;;4.37;3.10;;;15.60;99.90;;;;;;5156360;27;20062;-78
2022/07/16 04:15:37;;;;;;;6.20;3.20;;;15.70;99.90;;;;;;5156371;27;20087;-79
2022/07/16 04:18:03;;;;;;;6.70;3.13;;;15.80;99.90;;;;;;5156534;27;20084;-79
2022/07/16 04:20:29;;;;;;;6.83;2.97;;;15.70;99.90;;;;;;5156497;27;20147;-79
2022/07/16 04:22:54;;;;;;;8.10;3.10;;;15.70;99.90;;;;;;5156226;27;20049;-79
2022/07/16 04:25:20;;;;;;;5.53;2.77;;;15.30;99.90;;;;;;5155831;27;20039;-78
2022/07/16 04:27:46;;;;;;;6.00;2.70;;;15.70;99.90;;;;;;5155578;27;20038;-79
2022/07/16 04:30:13;;;;;;;6.50;2.70;;;15.60;99.90;;;;;;5137720;27;20402;-79
2022/07/16 04:32:40;;;;;;;5.05;2.38;;;15.20;99.90;;;;;;5137556;27;20042;-79
2022/07/16 04:35:06;;;;;;;;;;;15.60;99.90;;;;;;5156445;27;20402;-79
2022/07/16 04:37:32;;;;;;;5.13;2.55;;;15.50;99.90;;;;;;5120404;27;19926;-79
2022/07/16 04:39:57;;;;;;;6.00;2.50;;;15.30;99.90;;;;;;5137683;27;20035;-79
2022/07/16 04:42:23;;;;;;;5.50;2.23;;;15.40;99.90;;;;;;5155867;27;20466;-79
2022/07/16 04:44:49;;;;;;;6.40;2.43;;;15.30;99.90;;;;;;5156176;27;20087;-79
2022/07/16 04:47:14;;;;;;;5.47;2.40;;;16.10;99.90;;;;;;5155840;27;20054;-79
2022/07/16 04:49:40;;;;;;;6.30;2.45;;;15.00;99.90;;;;;;5155742;27;20050;-79
2022/07/16 04:52:06;;;;;;;5.93;2.20;;;15.00;99.90;;;;;;5155580;27;20074;-79
2022/07/16 04:54:32;;;;;;;7.15;2.20;;;15.60;99.90;;;;;;5136868;27;20527;-79
2022/07/16 04:56:57;;;;;;;5.45;2.08;;;15.20;99.90;;;;;;5155979;27;20046;-79
2022/07/16 04:59:23;;;;;;;6.20;2.23;;;15.50;99.90;;;;;;5155614;27;20466;-79
2022/07/16 05:01:49;;;;;;;4.38;1.88;;;15.50;99.90;;;;;;5155416;27;20043;-79
2022/07/16 05:04:14;;;;;;;5.60;2.07;;;15.60;99.90;;;;;;5137706;27;20034;-79
2022/07/16 05:06:40;;;;;;;7.37;2.10;;;15.00;99.90;;;;;;5155580;27;20506;-79
2022/07/16 05:09:05;;;;;;;5.70;2.13;;;15.40;99.90;;;;;;5155461;27;20494;-79
2022/07/16 05:11:31;;;;;;;8.93;1.98;;;15.70;99.90;;;;;;5155177;27;20497;-79
2022/07/16 05:13:57;;;;;;;4.67;1.80;;;15.10;99.90;;;;;;5155870;27;20095;-81
2022/07/16 05:16:23;;;;;;;3.63;1.90;;;15.10;99.90;;;;;;5155387;27;20589;-79
2022/07/16 05:18:49;;;;;;;8.53;2.10;;;16.00;99.90;;;;;;5155416;27;20053;-79
2022/07/16 05:21:15;;;;;;;6.40;2.30;;;15.40;99.90;;;;;;5136851;27;20391;-80
2022/07/16 05:23:41;;;;;;;4.68;2.17;;;15.40;99.90;;;;;;5155304;27;20039;-80
2022/07/16 05:26:07;;;;;;;8.13;2.20;;;15.70;99.90;;;;;;5136829;27;20042;-81
2022/07/16 05:28:32;;;;;;;6.27;2.00;;;15.50;99.90;;;;;;5155311;27;20046;-80
2022/07/16 05:30:58;;;;;;;7.87;1.80;;;15.50;99.90;;;;;;5137137;27;20046;-80
2022/07/16 05:33:23;;;;;;;4.90;2.03;;;15.50;99.90;;;;;;5136646;27;20390;-80
2022/07/16 05:35:49;;;;;;;5.40;1.88;;;15.50;99.90;;;;;;5137020;27;20142;-82
2022/07/16 05:38:15;;;;;;;6.23;2.17;;;16.10;99.90;;;;;;5139209;27;20042;-80
2022/07/16 05:40:40;;;;;;;5.63;2.03;;;16.10;99.90;;;;;;5140861;27;20035;-80
2022/07/16 05:43:06;;;;;;;8.67;2.00;;;16.10;99.90;;;;;;5159032;27;20061;-80
2022/07/16 05:45:32;;;;;;;5.10;1.80;;;16.50;99.90;;;;;;5159425;27;20163;-81
2022/07/16 05:47:58;;;;;;;4.63;1.77;;;16.40;99.90;;;;;;5123813;27;20053;-80
2022/07/16 05:50:24;;;;;;;6.23;2.13;;;17.40;99.90;;;;;;5141044;27;20035;-79
2022/07/16 05:52:50;;;;;;;7.00;1.70;;;17.10;99.90;;;;;;5159080;27;20107;-79
2022/07/16 05:55:15;;;;;;;5.93;1.87;;;16.60;99.90;;;;;;5159067;27;20043;-80
2022/07/16 05:57:41;;;;;;;5.57;1.87;;;17.10;99.90;;;;;;5159510;27;20085;-80
2022/07/16 06:00:11;;;;;;;6.03;1.90;;;16.90;99.90;;;;;;5141240;27;20049;-81
2022/07/16 06:02:38;;;;;;;6.85;1.83;;;17.00;99.90;;;;;;5141116;27;20047;-81
2022/07/16 06:05:04;;;;;;;;;;;16.20;99.90;;;;;;5141035;27;20428;-79
2022/07/16 06:07:29;;;;;;;5.70;1.88;;;17.10;99.90;;;;;;5123411;27;19925;-81
2022/07/16 06:09:55;;;;;;;4.50;1.80;;;17.20;99.90;;;;;;5158747;27;20046;-79
2022/07/16 06:12:21;;;;;;;5.87;1.60;;;18.20;99.90;;;;;;5159070;27;20054;-79
2022/07/16 06:14:48;;;;;;;5.43;1.48;;;18.10;99.90;;;;;;5140311;27;20117;-80
2022/07/16 06:17:13;;;;;;;6.80;1.70;;;17.00;99.90;;;;;;5158553;27;20525;-79
2022/07/16 06:19:41;;;;;;;4.67;1.77;;;18.00;99.90;;;;;;5158630;27;20083;-79
2022/07/16 06:22:07;;;;;;;4.25;1.40;;;17.20;99.90;;;;;;5158544;27;20083;-79
2022/07/16 06:24:33;;;;;;;7.38;1.90;;;17.80;99.90;;;;;;5158412;27;20528;-79
2022/07/16 06:26:58;;;;;;;6.90;1.90;;;17.60;99.90;;;;;;5158728;27;20070;-80
2022/07/16 06:29:24;;;;;;;8.00;1.83;;;18.00;99.90;;;;;;5158426;27;20042;-80
2022/07/16 06:31:50;;;;;;;6.50;1.67;;;18.70;99.90;;;;;;5158195;27;20121;-80
2022/07/16 06:34:15;;;;;;;7.33;1.73;;;18.40;99.90;;;;;;5158175;27;20045;-78
2022/07/16 06:36:41;;;;;;;3.33;1.33;;;18.40;99.90;;;;;;5158298;27;20043;-80
2022/07/16 06:39:07;;;;;;;5.30;1.37;;;18.40;99.90;;;;;;5157920;27;20126;-80
2022/07/16 06:41:36;;;;;;;5.47;1.90;;;17.90;99.90;;;;;;5158065;27;20042;-82
2022/07/16 06:44:03;;;;;;;8.80;1.63;;;18.70;99.90;;;;;;5158172;27;20047;-79
2022/07/16 06:46:29;;;;;;;;;;;18.60;99.90;;;;;;5123369;27;20043;-77
2022/07/16 06:48:54;;;;;;;5.63;1.63;;;18.50;99.90;;;;;;5157630;27;20013;-79
2022/07/16 06:51:20;;;;;;;4.97;1.30;;;18.60;99.90;;;;;;5158140;27;20043;-81
2022/07/16 06:53:45;;;;;;;6.20;1.50;;;18.30;99.90;;;;;;5157785;27;20043;-81
2022/07/16 06:56:11;;;;;;;6.27;1.50;;;18.60;99.90;;;;;;5157638;27;20054;-79
2022/07/16 06:58:37;;;;;;;5.70;1.57;;;18.30;99.90;;;;;;5157891;27;20148;-79
2022/07/16 07:01:03;;;;;;;6.27;1.40;;;18.20;99.90;;;;;;5157922;27;20421;-80
2022/07/16 07:03:28;;;;;;;6.90;1.60;;;18.20;99.90;;;;;;5157761;27;20077;-78
2022/07/16 07:05:54;;;;;;;6.73;1.30;;;18.20;99.90;;;;;;5139267;27;20325;-78
2022/07/16 07:08:20;;;;;;;6.03;1.50;;;18.00;99.90;;;;;;5157671;27;20058;-81
2022/07/16 07:10:45;;;;;;;5.10;1.27;;;17.90;99.90;;;;;;5139021;27;20034;-79
2022/07/16 07:13:11;;;;;;;5.43;1.80;;;17.70;99.90;;;;;;5157931;27;20045;-79
2022/07/16 07:15:36;;;;;;;6.90;1.60;;;17.30;99.90;;;;;;5157545;27;20050;-79
2022/07/16 07:18:02;;;;;;;7.23;1.60;;;17.60;99.90;;;;;;5139194;27;20046;-86
2022/07/16 07:20:28;;;;;;;3.77;1.10;;;17.90;99.90;;;;;;5139009;27;20039;-81
2022/07/16 07:22:53;;;;;;;7.17;1.40;;;17.40;99.90;;;;;;5157363;27;20038;-81
2022/07/16 07:25:19;;;;;;;6.70;1.47;;;17.90;99.90;;;;;;5138759;27;20039;-80
2022/07/16 07:27:45;;;;;;;6.53;1.60;;;17.40;99.90;;;;;;5157001;27;20117;-82
2022/07/16 07:30:11;;;;;;;7.90;1.93;;;17.40;99.90;;;;;;5138867;27;20047;-81
2022/07/16 07:32:37;;;;;;;3.83;1.42;;;17.20;99.90;;;;;;5138771;27;20053;-80
2022/07/16 07:35:03;;;;;;;4.63;1.20;;;16.70;99.90;;;;;;5156919;27;20137;-81
2022/07/16 07:37:29;;;;;;;6.90;1.33;;;17.30;99.90;;;;;;5138353;27;20043;-78
2022/07/16 07:39:55;;;;;;;11.70;1.60;;;17.00;99.90;;;;;;5156993;27;20493;-80
2022/07/16 07:42:20;;;;;;;5.43;1.40;;;17.50;99.90;;;;;;5157193;27;20053;-80
2022/07/16 07:44:46;;;;;;;6.13;1.20;;;17.60;99.90;;;;;;5156973;27;20522;-80
2022/07/16 07:47:11;;;;;;;4.63;1.30;;;17.90;99.90;;;;;;5156896;27;20039;-81
2022/07/16 07:49:37;;;;;;;3.40;1.10;;;17.80;99.90;;;;;;5157756;27;20039;-79
2022/07/16 07:52:03;;;;;;;4.83;1.20;;;17.80;99.90;;;;;;5156797;27;20509;-82
2022/07/16 07:54:28;;;;;;;6.57;1.43;;;17.80;99.90;;;;;;5156805;27;20496;-80
2022/07/16 07:56:54;;;;;;;5.60;1.40;;;18.00;99.90;;;;;;5157158;27;20042;-79
2022/07/16 07:59:19;;;;;;;3.33;0.90;;;18.00;99.90;;;;;;5156660;27;20082;-79
2022/07/16 08:01:45;;;;;;;4.37;0.90;;;18.00;99.90;;;;;;5155582;27;20047;-78
2022/07/16 08:04:10;;;;;;;3.40;1.17;;;17.90;99.90;;;;;;5121270;27;20038;-79
2022/07/16 08:06:37;;;;;;;4.97;1.40;;;17.90;99.90;;;;;;5156630;27;20089;-82
2022/07/16 08:09:03;;;;;;;3.97;1.08;;;18.40;99.90;;;;;;5137069;27;20039;-80
2022/07/16 08:11:29;;;;;;;4.95;1.10;;;17.90;99.90;;;;;;5156204;27;20538;-80
2022/07/16 08:13:55;;;;;;;6.97;1.40;;;17.90;99.90;;;;;;5137703;27;20039;-80
2022/07/16 08:16:20;;;;;;;3.93;0.83;;;17.30;99.90;;;;;;5137827;27;20046;-79
2022/07/16 08:18:46;;;;;;;3.37;0.97;;;18.20;99.90;;;;;;5156444;27;20082;-82
2022/07/16 08:21:11;;;;;;;2.90;1.00;;;18.40;99.90;;;;;;5157015;27;20439;-86
2022/07/16 08:26:21;;;;;;;4.75;1.10;;;18.30;98.80;;;;;;5156171;27;20046;-83
2022/07/16 08:28:46;;;;;;;3.57;0.90;;;18.30;98.70;;;;;;5156100;27;20049;-79
2022/07/16 08:31:13;;;;;;;4.13;1.10;;;18.20;98.30;;;;;;5155475;27;20053;-81
2022/07/16 08:33:39;;;;;;;5.70;1.25;;;18.20;98.90;;;;;;5155920;27;20050;-84
2022/07/16 08:36:04;;;;;;;5.40;1.20;;;18.40;99.80;;;;;;5120239;27;20398;-82
2022/07/16 08:38:30;;;;;;;3.97;1.00;;;18.90;99.90;;;;;;5155830;27;20043;-81
2022/07/16 08:40:56;;;;;;;3.67;0.93;;;19.20;99.90;;;;;;5137802;27;20043;-79
2022/07/16 08:43:22;;;;;;;3.20;1.10;;;19.60;99.10;;;;;;5155760;27;20045;-79
2022/07/16 08:45:50;;;;;;;4.07;1.30;;;18.70;97.60;;;;;;5155798;27;20280;-77
2022/07/16 08:48:16;;;;;;;3.65;1.00;;;18.60;98.40;;;;;;5155740;27;20290;-80
2022/07/16 08:50:42;;;;;;;9.45;1.20;;;18.50;98.90;;;;;;5137501;27;20386;-80
2022/07/16 08:53:09;;;;;;;3.70;1.00;;;18.20;98.50;;;;;;5155325;27;20034;-82
2022/07/16 08:55:37;;;;;;;4.85;0.90;;;19.10;99.00;;;;;;5155337;27;20038;-81
2022/07/16 08:58:06;;;;;;;5.32;1.13;;;19.10;99.00;;;;;;5155587;27;20046;-81
2022/07/16 09:00:33;;;;;;;2.97;0.82;;;19.20;97.50;;;;;;5137327;27;20043;-82
2022/07/16 09:02:58;;;;;;;;;;;19.80;97.50;;;;;;5137758;27;20133;-78
2022/07/16 09:05:24;;;;;;;3.72;1.00;;;19.20;96.70;;;;;;5155570;27;20398;-82
2022/07/16 09:07:51;;;;;;;2.42;0.90;;;19.20;97.30;;;;;;5155344;27;20095;-82
2022/07/16 09:10:16;;;;;;;3.00;1.02;;;19.10;97.00;;;;;;5154855;27;20058;-82
2022/07/16 09:12:45;;;;;;;3.93;0.90;;;19.30;96.70;;;;;;5154888;27;20046;-81
2022/07/16 09:15:35;;;;;;;5.32;1.20;;;19.60;97.10;;;;;;5155142;27;20405;-81
2022/07/16 09:18:24;;;;;;;1.95;0.80;;;19.30;95.80;;;;;;5155367;27;20396;-84
2022/07/16 09:20:57;;;;;;;4.90;1.17;;;19.50;96.40;;;;;;5107113;27;20118;-84
2022/07/16 09:23:24;;;;;;;7.13;1.33;;;19.30;96.30;;;;;;5119847;27;20043;-86
2022/07/16 09:26:02;;;;;;;3.65;1.02;;;19.10;97.20;;;;;;5137047;27;20078;-85
2022/07/16 09:28:49;;;;;;;6.13;1.20;;;19.20;97.50;;;;;;5119935;27;20106;-87
2022/07/16 09:31:37;;;;;;;4.00;1.00;;;20.20;97.60;;;;;;5136825;27;20046;-84
2022/07/16 09:34:11;;;;;;;6.85;1.05;;;19.80;96.30;;;;;;5136924;27;20046;-84
2022/07/16 09:36:38;;;;;;;5.05;1.10;;;20.10;96.40;;;;;;5137217;27;20041;-88
2022/07/16 09:39:06;;;;;;;4.95;1.33;;;20.50;96.20;;;;;;5119895;27;20051;-84
2022/07/16 09:41:44;;;;;;;5.47;1.45;;;20.20;95.70;;;;;;5120409;27;20042;-83
2022/07/16 09:44:22;;;;;;;5.22;1.27;;;19.30;95.40;;;;;;5119911;27;20479;-87
2022/07/16 09:47:12;;;;;;;4.10;0.95;;;20.10;95.40;;;;;;5136858;27;20542;-83
2022/07/16 09:49:50;;;;;;;4.68;1.30;;;20.10;95.40;;;;;;5120418;27;20137;-87
2022/07/16 09:52:34;;;;;;;6.78;1.30;;;20.60;96.20;;;;;;5119780;27;20130;-84
2022/07/16 09:54:59;;;;;;;6.40;1.23;;;19.90;95.70;;;;;;5136683;27;20047;-84
2022/07/16 09:57:27;;;;;;;4.07;1.00;;;20.50;96.20;;;;;;5136864;27;20180;-87
2022/07/16 09:59:53;;;;;;;3.08;0.93;;;20.10;96.20;;;;;;5136685;27;20164;-86
2022/07/16 10:02:19;;;;;;;4.70;1.08;;;20.60;96.20;;;;;;5119861;27;20046;-81
2022/07/16 10:04:45;;;;;;;6.60;0.90;;;20.50;95.50;;;;;;5154917;27;20043;-84
2022/07/16 10:07:11;;;;;;;4.73;1.40;;;20.50;95.10;;;;;;5119499;27;20133;-79
2022/07/16 10:09:36;;;;;;;4.37;1.00;;;20.50;95.00;;;;;;5154970;27;20042;-77
2022/07/16 10:12:06;;;;;;;4.60;1.37;;;20.50;95.80;;;;;;5155099;27;20565;-79
2022/07/16 10:14:38;;;;;;;3.88;1.05;;;20.40;95.40;;;;;;5154854;27;20046;-82
2022/07/16 10:17:30;;;;;;;3.60;1.10;;;20.50;96.30;;;;;;5154847;27;20386;-80
2022/07/16 10:20:02;;;;;;;4.78;1.20;;;20.50;96.00;;;;;;5136998;27;20080;-79
2022/07/16 10:22:30;;;;;;;4.28;0.95;;;20.70;95.90;;;;;;5154791;27;20113;-79
2022/07/16 10:24:56;;;;;;;5.63;1.27;;;20.80;95.40;;;;;;5138259;27;20107;-81
2022/07/16 10:27:35;;;;;;;2.95;1.00;;;20.90;95.50;;;;;;5159063;27;20494;-81
2022/07/16 10:30:19;;;;;;;4.60;1.10;;;20.70;94.80;;;;;;5159066;27;20159;-79
2022/07/16 10:33:02;;;;;;;5.60;1.20;;;20.60;95.40;;;;;;5158429;27;20042;-81
2022/07/16 10:35:45;;;;;;;4.25;0.95;;;20.50;95.30;;;;;;5139694;27;20439;-81
2022/07/16 10:38:14;;;;;;;6.22;1.27;;;20.50;96.40;;;;;;5122985;27;20053;-84
2022/07/16 10:40:41;;;;;;;6.47;1.20;;;20.40;96.70;;;;;;5123335;27;20394;-79
2022/07/16 10:43:21;;;;;;;4.28;1.05;;;20.30;96.60;;;;;;5158187;27;20042;-81
2022/07/16 10:45:57;;;;;;;5.03;1.17;;;20.30;95.60;;;;;;5158045;27;20091;-80
2022/07/16 10:48:28;;;;;;;5.50;1.20;;;20.30;95.70;;;;;;5158109;27;20078;-81
2022/07/16 10:51:14;;;;;;;4.90;1.27;;;20.40;96.30;;;;;;5140382;27;20042;-81
2022/07/16 10:53:58;;;;;;;5.45;1.63;;;20.40;95.00;;;;;;5157903;27;20074;-81
2022/07/16 10:56:46;;;;;;;3.75;1.10;;;20.60;95.80;;;;;;5139581;27;20046;-82
2022/07/16 10:59:15;;;;;;;3.58;1.20;;;20.80;94.80;;;;;;5157810;27;20053;-92
2022/07/16 11:01:43;;;;;;;4.25;1.10;;;21.00;95.30;;;;;;5139816;27;20038;-87
2022/07/16 11:04:10;;;;;;;5.32;1.10;;;21.20;93.90;;;;;;5139598;27;20035;-83
2022/07/16 11:06:37;;;;;;;4.60;1.08;;;21.30;93.60;;;;;;5122021;27;20405;-82
2022/07/16 11:09:05;;;;;;;2.22;0.90;;;21.50;94.10;;;;;;5157594;27;20055;-81
2022/07/16 11:11:36;;;;;;;4.53;1.00;;;21.50;93.30;;;;;;5135453;27;20043;-83
2022/07/16 11:14:02;;;;;;;3.15;0.98;;;21.60;94.00;;;;;;5137019;27;20462;-83
2022/07/16 11:16:29;;;;;;;4.07;0.90;;;21.70;92.90;;;;;;5135810;27;20470;-80
2022/07/16 11:18:55;;;;;;;5.20;0.93;;;21.10;92.80;;;;;;5136055;27;20086;-77
2022/07/16 11:21:20;;;;;;;2.47;0.82;;;21.80;92.50;;;;;;5136686;27;20085;-81
2022/07/16 11:23:50;;;;;;;3.37;0.97;;;21.80;90.80;;;;;;5118453;27;20082;-80
2022/07/16 11:26:16;;;;;;;2.70;1.17;;;21.90;91.20;;;;;;5135766;27;20054;-82
2022/07/16 11:28:53;;;;;;;2.97;0.90;;;21.90;90.80;;;;;;5135287;27;20039;-82
2022/07/16 11:31:26;;;;;;;3.00;1.00;;;22.10;90.90;;;;;;5135598;27;20039;-82
2022/07/16 11:33:54;;;;;;;6.88;1.23;;;22.10;90.70;;;;;;5135323;27;20387;-82
2022/07/16 11:36:20;;;;;;;6.13;1.00;;;22.00;91.40;;;;;;5134958;27;20946;-82
2022/07/16 11:38:46;;;;;;;5.70;1.30;;;22.10;91.60;;;;;;5135543;27;20126;-82
2022/07/16 11:41:12;;;;;;;3.33;1.10;;;22.30;91.80;;;;;;5136367;27;20043;-80
2022/07/16 11:43:37;;;;;;;4.27;1.30;;;22.70;91.70;;;;;;5136289;27;20123;-81
2022/07/16 11:46:03;;;;;;;3.53;0.93;;;22.50;91.40;;;;;;5135314;27;20281;-82
2022/07/16 11:48:37;;;;;;;2.90;1.10;;;22.70;91.50;;;;;;5135249;27;20540;-82
2022/07/16 11:51:09;;;;;;;5.47;1.00;;;22.90;90.50;;;;;;5134954;27;20042;-82
2022/07/16 11:53:37;;;;;;;5.75;1.10;;;22.70;88.40;;;;;;5136012;27;20464;-81
2022/07/16 11:56:05;;;;;;;3.75;1.00;;;22.20;90.30;;;;;;5135035;27;20051;-81
2022/07/16 11:58:31;;;;;;;6.05;1.35;;;22.10;90.90;;;;;;5135010;27;20463;-81
2022/07/16 12:00:56;;;;;;;7.00;1.17;;;22.10;91.00;;;;;;5135929;27;20092;-82
2022/07/16 12:03:22;;;;;;;6.30;1.30;;;21.70;90.90;;;;;;5135874;27;20045;-82
2022/07/16 12:05:59;;;;;;;3.80;1.20;;;22.90;91.10;;;;;;5135867;27;20039;-80
2022/07/16 12:08:25;;;;;;;;;;;22.50;89.80;;;;;;5135715;27;20395;-82
2022/07/16 12:11:00;;;;;;;4.20;1.20;;;22.70;89.30;;;;;;5138961;27;19919;-82
2022/07/16 12:13:26;;;;;;;2.75;0.98;;;22.60;88.70;;;;;;5138047;27;20047;-81
2022/07/16 12:15:57;;;;;;;5.40;1.17;;;22.60;89.00;;;;;;5138066;27;20054;-82
2022/07/16 12:18:23;;;;;;;4.18;1.17;;;22.50;91.00;;;;;;5137805;27;20086;-81
2022/07/16 12:20:50;;;;;;;5.18;1.13;;;22.30;90.90;;;;;;5156294;27;20108;-81
2022/07/16 12:23:34;;;;;;;4.55;1.02;;;22.40;90.40;;;;;;5156066;27;20121;-82
2022/07/16 12:26:05;;;;;;;3.28;1.13;;;22.50;88.80;;;;;;5137926;27;20527;-81
2022/07/16 12:28:31;;;;;;;4.65;1.00;;;22.60;90.40;;;;;;5156559;27;20490;-81
2022/07/16 12:30:58;;;;;;;4.70;1.10;;;22.90;89.20;;;;;;5155984;27;20490;-81
2022/07/16 12:33:29;;;;;;;3.33;0.98;;;23.00;89.90;;;;;;5120333;27;20042;-81
2022/07/16 12:35:57;;;;;;;6.88;1.00;;;22.90;90.30;;;;;;5156201;27;20134;-81
2022/07/16 12:38:51;;;;;;;4.25;0.93;;;22.60;90.00;;;;;;5156115;27;20046;-82
2022/07/16 12:41:20;;;;;;;3.88;1.20;;;22.40;90.20;;;;;;5156333;27;20419;-82
2022/07/16 12:43:49;;;;;;;4.25;0.93;;;22.40;91.10;;;;;;5155837;27;20039;-81
2022/07/16 12:46:16;;;;;;;5.10;1.10;;;22.40;90.30;;;;;;5155755;27;20050;-81
2022/07/16 12:48:51;;;;;;;3.00;0.82;;;22.20;90.80;;;;;;5155559;27;20398;-81
2022/07/16 12:51:20;;;;;;;3.45;0.90;;;22.10;89.50;;;;;;5155785;27;20501;-82
2022/07/16 12:53:47;;;;;;;4.88;1.00;;;22.00;90.00;;;;;;5137360;27;20046;-81